Time;durP1;ratioP1;P1;durP2;ratioP2;P2;SDS_P1;SDS_P2;PMS_P1;PMS_P2;Temp;Humidity;BMP_temperature;BMP_pressure;BME280_temperature;BME280_humidity;BME280_pressure;Samples;Min_cycle;Max_cycle;Signal;HPM_P1;HPM_P2
2022/06/12 00:01:52;;;;;;;15.50;8.02;;;22.40;99.90;;;;;;6195947;23;20007;-88
2022/06/12 00:04:21;;;;;;;19.67;8.23;;;22.40;99.90;;;;;;6195483;23;20022;-88
2022/06/12 00:06:48;;;;;;;22.98;10.10;;;22.40;99.90;;;;;;6195704;23;20008;-89
2022/06/12 00:09:24;;;;;;;20.17;8.43;;;22.40;99.90;;;;;;6195387;23;20010;-89
2022/06/12 00:11:51;;;;;;;20.33;8.23;;;22.40;99.90;;;;;;6195545;23;20015;-89
2022/06/12 00:14:19;;;;;;;16.35;8.57;;;22.40;99.90;;;;;;6195499;23;20008;-88
2022/06/12 00:16:46;;;;;;;21.73;8.23;;;22.40;99.90;;;;;;6195587;23;20008;-89
2022/06/12 00:19:14;;;;;;;18.42;7.60;;;22.40;99.90;;;;;;6246020;23;20004;-89
2022/06/12 00:21:41;;;;;;;15.48;7.28;;;22.40;99.90;;;;;;6195565;23;20062;-88
2022/06/12 00:24:12;;;;;;;21.13;8.07;;;22.30;99.90;;;;;;6195160;23;20030;-88
2022/06/12 00:26:45;;;;;;;18.13;8.05;;;22.30;99.90;;;;;;6195714;23;20012;-88
2022/06/12 00:29:17;;;;;;;23.77;8.38;;;22.30;99.90;;;;;;6197129;23;20012;-87
2022/06/12 00:31:49;;;;;;;15.90;7.18;;;22.30;99.90;;;;;;6195675;23;20012;-86
2022/06/12 00:34:22;;;;;;;19.80;7.38;;;22.30;99.90;;;;;;6195145;23;20008;-87
2022/06/12 00:36:48;;;;;;;16.38;7.15;;;22.20;99.90;;;;;;6195402;23;20012;-87
2022/06/12 00:39:17;;;;;;;21.52;7.53;;;22.20;99.90;;;;;;6195582;23;20510;-86
2022/06/12 00:41:46;;;;;;;16.02;7.35;;;22.30;99.90;;;;;;6195490;23;20015;-86
2022/06/12 00:44:20;;;;;;;14.68;6.80;;;22.20;99.90;;;;;;6194819;23;20393;-87
2022/06/12 00:46:58;;;;;;;16.50;8.07;;;22.20;99.90;;;;;;6194950;23;20016;-86
2022/06/12 00:49:54;;;;;;;19.80;7.32;;;22.20;99.90;;;;;;6199746;23;20012;-88
2022/06/12 00:52:34;;;;;;;17.58;7.55;;;22.20;99.90;;;;;;6196181;23;20004;-88
2022/06/12 00:55:38;;;;;;;15.80;7.80;;;22.20;99.90;;;;;;6200328;23;20054;-88
2022/06/12 00:58:11;;;;;;;17.17;7.75;;;22.20;99.90;;;;;;6136077;23;20008;-88
2022/06/12 01:00:39;;;;;;;16.67;7.30;;;22.20;99.90;;;;;;6199806;23;20039;-88
2022/06/12 01:03:07;;;;;;;16.42;6.68;;;22.20;99.90;;;;;;6199857;23;20004;-88
2022/06/12 01:08:21;;;;;;;19.58;6.63;;;22.20;99.90;;;;;;6225774;23;20008;-88
2022/06/12 01:10:54;;;;;;;18.83;7.68;;;22.20;99.90;;;;;;6202316;23;20004;-90
2022/06/12 01:13:47;;;;;;;21.13;7.82;;;22.20;99.90;;;;;;6201948;23;20012;-86
2022/06/12 01:16:18;;;;;;;14.45;6.40;;;22.20;99.90;;;;;;6199789;23;20008;-87
2022/06/12 01:18:53;;;;;;;18.65;7.00;;;22.20;99.90;;;;;;6201520;23;20011;-88
2022/06/12 01:21:55;;;;;;;17.55;6.60;;;22.20;99.90;;;;;;6200410;23;20039;-87
2022/06/12 01:24:47;;;;;;;18.23;7.35;;;22.20;99.90;;;;;;6166940;23;20048;-87
2022/06/12 01:27:47;;;;;;;24.80;6.53;;;22.10;99.90;;;;;;6201681;23;20008;-87
2022/06/12 01:30:31;;;;;;;14.07;6.40;;;22.10;99.90;;;;;;6202786;23;20008;-87
2022/06/12 01:33:21;;;;;;;16.10;6.60;;;22.10;99.90;;;;;;6202680;23;20008;-88
2022/06/12 01:36:33;;;;;;;20.92;7.82;;;22.10;99.90;;;;;;6201424;23;20087;-88
2022/06/12 01:39:41;;;;;;;17.15;5.65;;;22.00;99.90;;;;;;6079534;23;20014;-87
2022/06/12 01:42:33;;;;;;;18.30;6.53;;;22.00;99.90;;;;;;5967555;23;20350;-87
2022/06/12 01:45:25;;;;;;;12.80;6.32;;;22.00;99.90;;;;;;5970437;23;20019;-89
2022/06/12 01:48:22;;;;;;;18.58;6.55;;;22.10;99.90;;;;;;5993209;23;20473;-87
2022/06/12 01:51:08;;;;;;;15.32;6.35;;;22.00;99.90;;;;;;5992571;23;20379;-89
2022/06/12 01:53:46;;;;;;;20.30;6.32;;;22.00;99.90;;;;;;6014929;23;20548;-88
2022/06/12 01:56:26;;;;;;;22.15;7.80;;;22.00;99.90;;;;;;5993970;23;20039;-88
2022/06/12 01:59:07;;;;;;;16.88;6.43;;;22.00;99.90;;;;;;5994448;23;20015;-88
2022/06/12 02:01:49;;;;;;;11.80;6.30;;;22.00;99.90;;;;;;5993282;23;20031;-88
2022/06/12 02:04:39;;;;;;;19.02;6.75;;;22.00;99.90;;;;;;5994593;23;20554;-88
2022/06/12 02:07:39;;;;;;;17.08;7.20;;;22.00;99.90;;;;;;5992487;23;20071;-88
2022/06/12 02:10:15;;;;;;;16.50;6.35;;;21.90;99.90;;;;;;5990072;23;20012;-90
2022/06/12 02:15:48;;;;;;;18.75;6.05;;;21.90;99.90;;;;;;6115689;23;20012;-88
2022/06/12 02:18:43;;;;;;;17.38;6.10;;;21.90;99.90;;;;;;6221666;23;20008;-88
2022/06/12 02:21:10;;;;;;;10.43;5.88;;;21.90;99.90;;;;;;6197161;23;20012;-88
2022/06/12 02:23:51;;;;;;;16.30;7.30;;;21.80;99.90;;;;;;6189599;23;20465;-88
2022/06/12 02:26:22;;;;;;;16.35;5.95;;;21.80;99.90;;;;;;6166764;23;20044;-88
2022/06/12 02:29:20;;;;;;;13.15;6.88;;;21.80;99.90;;;;;;6166825;23;20421;-88
2022/06/12 02:31:52;;;;;;;12.55;5.90;;;21.80;99.90;;;;;;6166679;23;20012;-88
2022/06/12 02:34:29;;;;;;;10.45;5.68;;;21.80;99.90;;;;;;6166812;23;20015;-88
2022/06/12 02:37:05;;;;;;;17.95;6.07;;;21.70;99.90;;;;;;6166598;23;20009;-88
2022/06/12 02:39:44;;;;;;;16.08;5.43;;;21.70;99.90;;;;;;6166655;23;20075;-88
2022/06/12 02:42:17;;;;;;;11.43;5.47;;;21.70;99.90;;;;;;6166709;23;20008;-88
2022/06/12 02:44:56;;;;;;;15.20;5.90;;;21.70;99.90;;;;;;6166490;23;20017;-88
2022/06/12 02:47:30;;;;;;;28.60;7.30;;;21.70;99.90;;;;;;6166551;23;20013;-87
2022/06/12 02:49:58;;;;;;;;;;;21.70;99.90;;;;;;6166973;23;20072;-88
2022/06/12 02:52:41;;;;;;;14.68;5.75;;;21.70;99.90;;;;;;6166418;23;19904;-88
2022/06/12 02:55:23;;;;;;;17.65;6.15;;;21.70;99.90;;;;;;6166567;23;20005;-87
2022/06/12 02:58:20;;;;;;;12.85;5.78;;;21.70;99.90;;;;;;6166446;23;20008;-88
2022/06/12 03:01:02;;;;;;;10.35;6.22;;;21.70;99.90;;;;;;6165889;23;20008;-88
2022/06/12 03:03:44;;;;;;;17.95;6.28;;;21.70;99.90;;;;;;6166561;23;20083;-88
2022/06/12 03:06:12;;;;;;;13.93;6.40;;;21.70;99.90;;;;;;6166361;23;20027;-88
2022/06/12 03:08:42;;;;;;;14.65;6.60;;;21.70;99.90;;;;;;6166382;23;20458;-87
2022/06/12 03:11:24;;;;;;;11.77;5.63;;;21.70;99.90;;;;;;6101842;23;20009;-88
2022/06/12 03:13:53;;;;;;;15.27;5.90;;;21.70;99.90;;;;;;6077548;23;20392;-88
2022/06/12 03:16:31;;;;;;;14.60;6.38;;;21.70;99.90;;;;;;6101688;23;20018;-87
2022/06/12 03:19:03;;;;;;;12.10;5.97;;;21.70;99.90;;;;;;6101643;23;20010;-89
2022/06/12 03:22:03;;;;;;;11.40;5.68;;;21.70;99.90;;;;;;6101771;23;20052;-88
2022/06/12 03:24:52;;;;;;;14.48;5.70;;;21.70;99.90;;;;;;6051875;23;20018;-88
2022/06/12 03:27:37;;;;;;;12.57;5.72;;;21.70;99.90;;;;;;6106335;23;20012;-88
2022/06/12 03:30:15;;;;;;;15.85;6.00;;;21.70;99.90;;;;;;6130880;23;20016;-88
2022/06/12 03:33:09;;;;;;;14.52;6.35;;;21.70;99.90;;;;;;6130762;23;20100;-87
2022/06/12 03:36:09;;;;;;;11.15;5.75;;;21.70;99.90;;;;;;6130736;23;20451;-88
2022/06/12 03:38:43;;;;;;;12.23;5.55;;;21.70;99.90;;;;;;6130854;23;20016;-88
2022/06/12 03:41:31;;;;;;;11.90;5.17;;;21.70;99.90;;;;;;6114502;23;20427;-88
2022/06/12 03:44:25;;;;;;;10.05;5.80;;;21.80;99.90;;;;;;6196340;23;20032;-88
2022/06/12 03:47:04;;;;;;;11.02;5.78;;;21.80;99.90;;;;;;6195929;23;20024;-88
2022/06/12 03:49:49;;;;;;;7.97;4.88;;;21.80;99.90;;;;;;6196138;23;20035;-88
2022/06/12 03:52:26;;;;;;;13.80;5.82;;;21.80;99.90;;;;;;6195831;23;20043;-87
2022/06/12 03:54:56;;;;;;;12.40;5.68;;;21.90;99.90;;;;;;6196028;23;20015;-87
2022/06/12 03:57:52;;;;;;;12.90;6.00;;;21.90;99.90;;;;;;6195407;23;20039;-88
2022/06/12 04:00:34;;;;;;;14.20;5.57;;;21.90;99.90;;;;;;6196299;23;20008;-87
2022/06/12 04:03:13;;;;;;;12.50;6.00;;;21.90;99.90;;;;;;6196039;23;20008;-88
2022/06/12 04:06:01;;;;;;;14.10;6.13;;;22.00;99.90;;;;;;6195979;23;20355;-88
2022/06/12 04:08:43;;;;;;;15.98;6.28;;;22.00;99.90;;;;;;6195597;23;20004;-88
2022/06/12 04:11:13;;;;;;;9.75;5.75;;;22.10;99.90;;;;;;6195811;23;20473;-89
2022/06/12 04:13:41;;;;;;;11.68;6.40;;;22.10;99.90;;;;;;6195657;23;20467;-89
2022/06/12 04:16:29;;;;;;;10.52;5.45;;;22.10;99.90;;;;;;6195548;23;20008;-91
2022/06/12 04:18:56;;;;;;;14.30;6.57;;;22.20;99.90;;;;;;6195706;23;20005;-89
2022/06/12 04:21:45;;;;;;;12.95;6.60;;;22.30;99.90;;;;;;6195560;23;20323;-89
2022/06/12 04:24:25;;;;;;;11.65;6.00;;;22.30;99.90;;;;;;6194929;23;20098;-90
2022/06/12 04:27:04;;;;;;;16.38;6.55;;;22.30;99.90;;;;;;6195743;23;20091;-89
2022/06/12 04:29:36;;;;;;;15.13;6.20;;;22.40;99.90;;;;;;6195823;23;20012;-89
2022/06/12 04:32:07;;;;;;;18.02;5.88;;;22.60;99.90;;;;;;6195502;23;20460;-89
2022/06/12 04:34:39;;;;;;;16.25;6.25;;;23.00;99.90;;;;;;6195565;23;20337;-89
2022/06/12 04:37:22;;;;;;;15.73;5.38;;;23.50;99.90;;;;;;6195258;23;20082;-89
2022/06/12 04:39:50;;;;;;;13.80;5.57;;;24.40;99.90;;;;;;6195294;23;20435;-89
2022/06/12 04:42:20;;;;;;;15.63;5.32;;;25.40;99.90;;;;;;6195556;23;20008;-90
2022/06/12 04:44:48;;;;;;;17.15;5.38;;;26.40;99.90;;;;;;6195437;23;20502;-89
2022/06/12 04:47:19;;;;;;;11.68;4.57;;;26.90;99.90;;;;;;6195838;23;20075;-89
2022/06/12 04:49:46;;;;;;;14.77;5.30;;;26.90;99.90;;;;;;6195615;23;20019;-90
2022/06/12 04:52:16;;;;;;;12.20;5.00;;;27.10;99.90;;;;;;6195840;23;20346;-89
2022/06/12 04:54:46;;;;;;;14.05;5.03;;;27.20;99.90;;;;;;6195348;23;20012;-89
2022/06/12 04:57:16;;;;;;;9.32;4.95;;;27.60;99.90;;;;;;6195361;23;20012;-89
2022/06/12 04:59:45;;;;;;;10.23;5.40;;;27.90;99.90;;;;;;6195513;23;20019;-89
2022/06/12 05:02:12;;;;;;;16.20;5.85;;;27.90;99.90;;;;;;6195203;23;20011;-89
2022/06/12 05:04:40;;;;;;;10.57;4.90;;;27.60;99.90;;;;;;6195331;23;20028;-89
2022/06/12 05:07:07;;;;;;;8.18;5.07;;;27.30;99.90;;;;;;6195552;23;20004;-89
2022/06/12 05:09:39;;;;;;;15.77;5.35;;;27.50;99.90;;;;;;6195455;23;20004;-90
2022/06/12 05:12:08;;;;;;;11.35;5.60;;;27.50;99.90;;;;;;6195562;23;20015;-88
2022/06/12 05:14:36;;;;;;;11.20;4.65;;;27.10;99.90;;;;;;6195615;23;20079;-87
2022/06/12 05:17:06;;;;;;;12.57;5.18;;;27.60;99.90;;;;;;6195303;23;20012;-88
2022/06/12 05:19:37;;;;;;;11.23;5.10;;;28.00;99.90;;;;;;6195563;23;20004;-88
2022/06/12 05:22:05;;;;;;;13.77;5.90;;;28.30;99.90;;;;;;6195463;23;20039;-88
2022/06/12 05:24:32;;;;;;;14.48;5.30;;;28.70;99.90;;;;;;6194970;23;20012;-87
2022/06/12 05:26:59;;;;;;;13.98;4.85;;;28.30;99.90;;;;;;6195355;23;20012;-89
2022/06/12 05:29:33;;;;;;;17.65;5.80;;;27.80;99.90;;;;;;6195367;23;20000;-90
2022/06/12 05:32:03;;;;;;;14.77;4.85;;;28.20;99.90;;;;;;6195333;23;20369;-88
2022/06/12 05:34:31;;;;;;;14.77;5.72;;;28.20;99.90;;;;;;6196821;23;20440;-89
2022/06/12 05:36:58;;;;;;;14.23;6.90;;;28.00;99.90;;;;;;6195106;23;20008;-90
2022/06/12 05:39:25;;;;;;;13.82;5.75;;;27.80;99.90;;;;;;6198117;23;20011;-90
2022/06/12 05:41:53;;;;;;;11.18;4.85;;;28.10;99.90;;;;;;6195278;23;20034;-89
2022/06/12 05:44:20;;;;;;;12.95;5.85;;;28.60;99.90;;;;;;6195311;23;20008;-90
2022/06/12 05:46:53;;;;;;;9.75;4.90;;;28.40;99.90;;;;;;6195006;23;20015;-89
2022/06/12 05:49:20;;;;;;;11.48;5.35;;;28.30;99.90;;;;;;6195150;23;20011;-90
2022/06/12 05:51:53;;;;;;;10.07;4.72;;;28.70;99.90;;;;;;6196105;23;20008;-89
2022/06/12 05:54:21;;;;;;;12.55;5.35;;;29.30;99.90;;;;;;6197012;23;20008;-89
2022/06/12 05:56:48;;;;;;;11.85;4.93;;;29.10;99.90;;;;;;6197017;23;20457;-90
2022/06/12 05:59:15;;;;;;;11.93;4.82;;;28.90;99.90;;;;;;6196862;23;20008;-88
2022/06/12 06:01:42;;;;;;;8.88;5.25;;;28.70;99.90;;;;;;6197069;23;20016;-89
2022/06/12 06:04:10;;;;;;;8.10;4.72;;;28.50;99.90;;;;;;6196874;23;20493;-89
2022/06/12 06:06:51;;;;;;;10.10;4.93;;;28.70;99.90;;;;;;6196832;23;20007;-89
2022/06/12 06:09:19;;;;;;;9.43;5.35;;;29.10;99.90;;;;;;6196653;23;20426;-88
2022/06/12 06:11:47;;;;;;;11.35;4.63;;;29.30;99.90;;;;;;6196759;23;20046;-88
2022/06/12 06:14:20;;;;;;;12.48;4.63;;;29.40;99.90;;;;;;6196691;23;20008;-90
2022/06/12 06:16:53;;;;;;;10.73;5.25;;;29.20;99.90;;;;;;6196768;23;20019;-89
2022/06/12 06:19:22;;;;;;;12.45;4.60;;;28.80;99.90;;;;;;6156484;23;20002;-89
2022/06/12 06:21:49;;;;;;;8.18;4.65;;;29.10;99.90;;;;;;6131647;23;20037;-88
2022/06/12 06:24:16;;;;;;;10.68;4.30;;;29.40;99.90;;;;;;6141063;23;20169;-88
2022/06/12 06:26:43;;;;;;;14.05;4.45;;;29.70;99.90;;;;;;6102045;23;20022;-87
2022/06/12 06:29:16;;;;;;;14.43;5.22;;;29.30;99.90;;;;;;6101982;23;20010;-88
2022/06/12 06:32:01;;;;;;;9.60;4.75;;;29.20;99.90;;;;;;6073226;23;20496;-87
2022/06/12 06:34:28;;;;;;;9.23;4.38;;;28.60;99.90;;;;;;6073214;23;20010;-88
2022/06/12 06:36:58;;;;;;;12.57;4.78;;;28.70;99.90;;;;;;6073639;23;20002;-89
2022/06/12 06:39:34;;;;;;;9.05;4.53;;;28.70;99.90;;;;;;6073315;23;20015;-90
2022/06/12 06:42:01;;;;;;;12.80;4.15;;;28.70;99.90;;;;;;6072805;23;20159;-88
2022/06/12 06:47:12;;;;;;;8.55;4.25;;;29.20;99.90;;;;;;6072566;23;20014;-91
2022/06/12 06:49:39;;;;;;;9.15;4.28;;;28.70;99.90;;;;;;6079351;23;20009;-91
2022/06/12 06:52:08;;;;;;;10.60;4.60;;;29.00;99.90;;;;;;6101631;23;20439;-92
2022/06/12 06:54:38;;;;;;;11.13;4.78;;;29.40;99.90;;;;;;6125967;23;20021;-88
2022/06/12 06:57:07;;;;;;;7.35;3.88;;;29.40;99.90;;;;;;6101481;23;20032;-88
2022/06/12 06:59:35;;;;;;;16.55;5.32;;;29.50;99.90;;;;;;6101458;23;20109;-87
2022/06/12 07:02:02;;;;;;;15.20;5.28;;;29.00;99.90;;;;;;6105840;23;20436;-86
2022/06/12 07:04:29;;;;;;;10.40;4.60;;;28.50;99.90;;;;;;6130961;23;20056;-87
2022/06/12 07:06:56;;;;;;;10.77;5.05;;;28.70;99.90;;;;;;6161409;23;20013;-87
2022/06/12 07:09:23;;;;;;;6.25;4.45;;;29.00;99.90;;;;;;6191006;23;20005;-89
2022/06/12 07:11:49;;;;;;;15.23;4.40;;;29.00;99.90;;;;;;6167054;23;20009;-91
2022/06/12 07:14:16;;;;;;;11.35;4.85;;;28.80;99.90;;;;;;6167753;23;20011;-89
2022/06/12 07:16:43;;;;;;;7.30;4.03;;;29.00;99.90;;;;;;6166737;23;20016;-89
2022/06/12 07:19:09;;;;;;;7.68;4.22;;;28.90;99.90;;;;;;6166363;23;20001;-88
2022/06/12 07:21:40;;;;;;;13.60;4.93;;;29.10;99.90;;;;;;6166367;23;20343;-91
2022/06/12 07:24:07;;;;;;;10.25;5.57;;;29.20;99.90;;;;;;6179077;23;20019;-89
2022/06/12 07:26:37;;;;;;;9.90;5.03;;;29.10;99.90;;;;;;6195855;23;20020;-90
2022/06/12 07:29:08;;;;;;;8.25;4.38;;;28.90;99.90;;;;;;6196100;23;20004;-89
2022/06/12 07:31:35;;;;;;;11.40;5.55;;;28.90;99.90;;;;;;6196280;23;20007;-90
2022/06/12 07:34:02;;;;;;;9.50;4.95;;;29.10;99.90;;;;;;6196264;23;20333;-89
2022/06/12 07:36:30;;;;;;;10.45;5.20;;;28.80;99.90;;;;;;6195935;23;20004;-89
2022/06/12 07:39:09;;;;;;;13.40;5.22;;;28.80;99.90;;;;;;6196082;23;20015;-88
2022/06/12 07:41:37;;;;;;;9.38;4.20;;;28.50;99.90;;;;;;6196002;23;20496;-88
2022/06/12 07:44:05;;;;;;;11.45;5.65;;;28.60;99.90;;;;;;6195812;23;20004;-87
2022/06/12 07:46:31;;;;;;;11.20;4.57;;;28.80;99.90;;;;;;6195747;23;20031;-89
2022/06/12 07:48:58;;;;;;;9.68;4.72;;;28.80;99.90;;;;;;6195108;23;20046;-91
2022/06/12 07:51:29;;;;;;;10.18;4.28;;;28.80;99.90;;;;;;6195179;23;20085;-90
2022/06/12 07:53:56;;;;;;;8.38;4.40;;;28.90;99.90;;;;;;6194190;23;20088;-91
2022/06/12 07:56:25;;;;;;;8.48;4.70;;;29.30;99.90;;;;;;6194617;23;20016;-90
2022/06/12 07:58:53;;;;;;;13.43;5.47;;;29.60;99.90;;;;;;6194423;23;20008;-90
2022/06/12 08:01:22;;;;;;;10.43;4.68;;;29.10;99.90;;;;;;6194363;23;20004;-91
2022/06/12 08:03:57;;;;;;;13.95;4.50;;;28.60;99.90;;;;;;6194558;23;20041;-90
2022/06/12 08:06:25;;;;;;;9.25;4.28;;;28.70;99.90;;;;;;6194310;23;20095;-90
2022/06/12 08:08:52;;;;;;;8.23;4.32;;;29.00;99.90;;;;;;6194295;23;20063;-91
2022/06/12 08:11:21;;;;;;;10.23;4.25;;;29.30;99.90;;;;;;6194486;23;20015;-90
2022/06/12 08:13:48;;;;;;;9.85;4.47;;;29.60;99.90;;;;;;6194615;23;20095;-91
2022/06/12 08:16:15;;;;;;;8.77;4.00;;;29.60;99.90;;;;;;6194648;23;20004;-90
2022/06/12 08:18:42;;;;;;;9.20;4.70;;;29.50;99.90;;;;;;6194458;23;20082;-90
2022/06/12 08:21:18;;;;;;;8.55;4.22;;;29.40;99.90;;;;;;6195674;23;20338;-90
2022/06/12 08:23:52;;;;;;;16.67;5.43;;;29.30;99.90;;;;;;6187418;23;20017;-91
2022/06/12 08:26:26;;;;;;;10.45;4.22;;;29.00;99.90;;;;;;6164313;23;20043;-91
2022/06/12 08:28:53;;;;;;;10.63;4.35;;;28.60;99.90;;;;;;6164343;23;20043;-91
2022/06/12 08:31:40;;;;;;;7.60;3.90;;;28.90;99.90;;;;;;6164278;23;20009;-91
2022/06/12 08:34:13;;;;;;;8.48;4.22;;;29.40;99.90;;;;;;6164760;23;20454;-89
2022/06/12 08:36:40;;;;;;;11.98;3.95;;;29.50;99.90;;;;;;6164340;23;20123;-89
2022/06/12 08:39:07;;;;;;;7.60;3.50;;;29.30;99.90;;;;;;6164145;23;20016;-89
2022/06/12 08:41:54;;;;;;;5.63;3.67;;;29.40;99.90;;;;;;6164184;23;20091;-91
2022/06/12 08:44:20;;;;;;;5.65;3.30;;;29.40;99.90;;;;;;6164272;23;20017;-91
2022/06/12 08:47:03;;;;;;;7.60;3.83;;;29.20;99.90;;;;;;6164385;23;20044;-90
2022/06/12 08:49:40;;;;;;;5.60;3.95;;;29.10;99.90;;;;;;6164491;23;20088;-91
2022/06/12 08:52:32;;;;;;;4.78;3.67;;;29.10;99.90;;;;;;6164478;23;20091;-91
2022/06/12 08:55:27;;;;;;;5.57;4.10;;;29.10;99.90;;;;;;6164255;23;20135;-91
2022/06/12 08:58:31;;;;;;;5.90;4.05;;;29.00;99.90;;;;;;6164325;23;20341;-91
2022/06/12 09:01:00;;;;;;;8.00;3.97;;;29.00;99.90;;;;;;6164602;23;20027;-91
2022/06/12 09:03:32;;;;;;;9.88;3.88;;;29.10;99.90;;;;;;6164121;23;20008;-90
2022/06/12 09:06:19;;;;;;;7.78;3.65;;;29.40;99.90;;;;;;6164088;23;20136;-92
2022/06/12 09:09:09;;;;;;;8.70;3.38;;;29.40;99.90;;;;;;6099938;23;20140;-92
2022/06/12 09:11:46;;;;;;;4.50;3.70;;;29.50;99.90;;;;;;6164256;23;20024;-90
2022/06/12 09:14:32;;;;;;;5.28;3.58;;;29.30;99.90;;;;;;6164386;23;20009;-91
2022/06/12 09:17:20;;;;;;;11.68;4.10;;;29.50;99.90;;;;;;6164079;23;20008;-91
2022/06/12 09:20:21;;;;;;;6.75;4.13;;;29.50;99.90;;;;;;6164262;23;20015;-91
2022/06/12 09:22:57;;;;;;;6.35;3.50;;;29.00;99.90;;;;;;6164326;23;20024;-91
2022/06/12 09:25:44;;;;;;;7.88;3.83;;;29.20;99.90;;;;;;6164327;23;20040;-91
2022/06/12 09:28:50;;;;;;;8.55;3.85;;;29.10;99.90;;;;;;6166226;23;20017;-91
2022/06/12 09:31:49;;;;;;;3.85;3.10;;;28.90;99.90;;;;;;6167662;23;20011;-88
2022/06/12 09:34:50;;;;;;;6.90;3.67;;;28.90;99.90;;;;;;6106049;23;20009;-90
2022/06/12 09:40:58;;;;;;;7.65;3.60;;;28.30;99.90;;;;;;6196343;23;20012;-88
2022/06/12 09:43:46;;;;;;;6.55;3.58;;;28.50;99.90;;;;;;6167487;23;20013;-88
2022/06/12 09:46:35;;;;;;;5.45;3.80;;;28.40;99.90;;;;;;6167164;23;20031;-87
2022/06/12 09:49:08;;;;;;;7.05;3.55;;;28.30;99.90;;;;;;6166545;23;20055;-89
2022/06/12 09:51:57;;;;;;;6.65;3.70;;;28.00;99.90;;;;;;6167877;23;20015;-88
2022/06/12 09:54:53;;;;;;;8.40;3.53;;;27.90;99.90;;;;;;6168081;23;20004;-89
2022/06/12 09:57:44;;;;;;;9.32;3.50;;;28.10;99.90;;;;;;6171226;23;20012;-90
2022/06/12 10:00:26;;;;;;;7.18;4.13;;;28.10;99.90;;;;;;6170658;23;20058;-89
2022/06/12 10:03:09;;;;;;;7.45;3.28;;;27.90;99.90;;;;;;6170763;23;20017;-88
2022/06/12 10:05:51;;;;;;;5.90;3.88;;;27.90;99.90;;;;;;6172703;23;20024;-88
2022/06/12 10:08:49;;;;;;;11.73;4.03;;;27.70;99.90;;;;;;6168578;23;20028;-87
2022/06/12 10:11:37;;;;;;;9.10;4.15;;;27.80;99.90;;;;;;6199267;23;20063;-88
2022/06/12 10:14:26;;;;;;;6.78;3.70;;;28.00;99.90;;;;;;6172717;23;20004;-88
2022/06/12 10:17:18;;;;;;;8.00;3.67;;;27.70;99.90;;;;;;6169764;23;20012;-92
2022/06/12 10:20:05;;;;;;;8.85;3.83;;;27.40;99.90;;;;;;6167922;23;20055;-88
2022/06/12 10:22:46;;;;;;;11.30;3.85;;;27.60;99.90;;;;;;6167328;23;20012;-89
2022/06/12 10:25:28;;;;;;;5.63;3.22;;;28.00;99.90;;;;;;6192595;23;20047;-88
2022/06/12 10:28:01;;;;;;;7.05;4.32;;;27.90;99.90;;;;;;6198405;23;20012;-88
2022/06/12 10:30:37;;;;;;;6.03;3.60;;;27.80;99.90;;;;;;6197320;23;20011;-87
2022/06/12 10:33:20;;;;;;;10.35;3.72;;;27.70;99.90;;;;;;6197471;23;20032;-87
2022/06/12 10:35:59;;;;;;;9.25;4.38;;;28.10;99.90;;;;;;6196849;23;20015;-87
2022/06/12 10:38:33;;;;;;;7.72;3.35;;;28.00;99.90;;;;;;6196880;23;20008;-88
2022/06/12 10:41:06;;;;;;;5.47;3.75;;;27.90;99.90;;;;;;6198167;23;20426;-88
2022/06/12 10:43:43;;;;;;;9.32;4.03;;;28.00;99.90;;;;;;6198033;23;20018;-87
2022/06/12 10:46:24;;;;;;;6.10;3.78;;;28.30;99.90;;;;;;6196819;23;20354;-88
2022/06/12 10:49:03;;;;;;;5.05;3.70;;;28.20;99.90;;;;;;6197223;23;20441;-89
2022/06/12 10:51:36;;;;;;;5.05;3.35;;;28.00;99.90;;;;;;6196611;23;20047;-89
2022/06/12 10:54:19;;;;;;;6.95;3.85;;;27.90;99.90;;;;;;6196492;23;20012;-89
2022/06/12 10:56:58;;;;;;;5.23;3.73;;;27.90;99.90;;;;;;6196541;23;20083;-87
2022/06/12 10:59:30;;;;;;;6.72;4.38;;;27.90;99.90;;;;;;6196809;23;20008;-89
2022/06/12 11:02:23;;;;;;;5.50;3.63;;;27.90;99.90;;;;;;6196192;23;20011;-88
2022/06/12 11:05:05;;;;;;;7.30;4.22;;;27.80;99.90;;;;;;6196616;23;20027;-88
2022/06/12 11:07:56;;;;;;;7.47;4.55;;;27.70;99.90;;;;;;6196185;23;20004;-88
2022/06/12 11:11:03;;;;;;;6.63;4.32;;;27.70;99.90;;;;;;6196639;23;20008;-88
2022/06/12 11:13:42;;;;;;;8.25;4.72;;;27.80;99.90;;;;;;6196393;23;20035;-88
2022/06/12 11:16:51;;;;;;;6.78;4.28;;;27.80;99.90;;;;;;6196490;23;20043;-88
2022/06/12 11:19:43;;;;;;;5.70;4.85;;;27.90;99.90;;;;;;6183339;23;20004;-88
2022/06/12 11:22:29;;;;;;;8.10;4.53;;;27.90;99.90;;;;;;6196556;23;20488;-88
2022/06/12 11:25:27;;;;;;;12.43;4.72;;;27.90;99.90;;;;;;6196027;23;20100;-88
2022/06/12 11:28:10;;;;;;;5.57;4.45;;;28.00;99.90;;;;;;6196257;23;20008;-88
2022/06/12 11:31:10;;;;;;;7.60;4.57;;;28.10;99.90;;;;;;6196324;23;20011;-89
2022/06/12 11:34:04;;;;;;;9.77;4.75;;;28.00;99.90;;;;;;6196383;23;20008;-88
2022/06/12 11:36:40;;;;;;;7.35;5.00;;;28.10;99.90;;;;;;6195874;23;20027;-88
2022/06/12 11:39:27;;;;;;;5.97;5.35;;;28.20;99.90;;;;;;6196293;23;20504;-89
2022/06/12 11:42:12;;;;;;;5.15;4.50;;;28.20;99.90;;;;;;6196146;23;20008;-88
2022/06/12 11:45:10;;;;;;;7.10;4.68;;;28.20;99.90;;;;;;6195971;23;20077;-88
2022/06/12 11:47:45;;;;;;;10.32;5.30;;;28.20;99.90;;;;;;6221465;23;20453;-88
2022/06/12 11:50:42;;;;;;;5.75;5.15;;;28.00;99.90;;;;;;6195716;23;20020;-88
2022/06/12 11:53:24;;;;;;;6.78;5.40;;;27.90;99.90;;;;;;6197577;23;20004;-88
2022/06/12 11:55:57;;;;;;;8.38;4.80;;;27.90;99.90;;;;;;6196771;23;20012;-88
2022/06/12 11:59:17;;;;;;;5.05;4.40;;;27.90;99.90;;;;;;6196838;23;20004;-91
2022/06/12 12:01:55;;;;;;;5.50;4.93;;;28.10;99.90;;;;;;6214723;23;20078;-91
2022/06/12 12:04:32;;;;;;;6.25;5.38;;;28.20;99.90;;;;;;6196020;23;20012;-90
2022/06/12 12:07:20;;;;;;;8.25;5.78;;;28.00;99.90;;;;;;6195651;23;20016;-91
2022/06/12 12:10:26;;;;;;;5.97;5.32;;;28.00;99.90;;;;;;6195745;23;20008;-91
2022/06/12 12:13:01;;;;;;;6.75;5.13;;;28.30;99.90;;;;;;6195478;23;20015;-91
2022/06/12 12:15:47;;;;;;;6.57;4.93;;;28.30;99.90;;;;;;6195738;23;20004;-91
2022/06/12 12:19:06;;;;;;;9.88;4.97;;;28.10;99.90;;;;;;6195812;23;20446;-91
2022/06/12 12:22:00;;;;;;;7.93;5.22;;;27.90;99.90;;;;;;6135488;23;20005;-91
2022/06/12 12:24:36;;;;;;;9.27;4.97;;;27.90;99.90;;;;;;6149365;23;20439;-91
2022/06/12 12:27:09;;;;;;;5.95;5.22;;;27.70;99.90;;;;;;6135624;23;20024;-91
2022/06/12 12:29:38;;;;;;;6.47;5.68;;;28.00;99.90;;;;;;6135282;23;20012;-91
2022/06/12 12:32:10;;;;;;;6.88;5.32;;;28.10;99.90;;;;;;6135585;23;20092;-90
2022/06/12 12:34:40;;;;;;;8.40;5.25;;;28.10;99.90;;;;;;6135289;23;20043;-91
2022/06/12 12:43:20;;;;;;;7.18;4.97;;;28.30;99.90;;;;;;6149028;23;20585;-91
2022/06/12 12:46:01;;;;;;;8.80;5.60;;;28.20;99.90;;;;;;6129504;23;20032;-90
2022/06/12 12:48:44;;;;;;;7.75;5.30;;;28.30;99.90;;;;;;6135181;23;20084;-91
2022/06/12 12:51:22;;;;;;;5.22;4.43;;;28.30;99.90;;;;;;6159907;23;20475;-91
2022/06/12 12:53:52;;;;;;;7.53;5.68;;;28.50;99.90;;;;;;6135315;23;20013;-91
2022/06/12 12:56:33;;;;;;;6.65;4.90;;;28.60;99.90;;;;;;6148689;23;20033;-91
2022/06/12 12:59:06;;;;;;;7.60;5.13;;;28.20;99.90;;;;;;6182374;23;20453;-91
2022/06/12 13:01:43;;;;;;;6.93;4.72;;;28.00;99.90;;;;;;6196973;23;20036;-91
2022/06/12 13:04:22;;;;;;;7.65;4.70;;;28.10;99.90;;;;;;6197407;23;20008;-91
2022/06/12 13:07:07;;;;;;;5.95;5.22;;;28.20;99.90;;;;;;6197427;23;20020;-92
2022/06/12 13:10:11;;;;;;;6.95;5.68;;;28.10;99.90;;;;;;6197220;23;20513;-91
2022/06/12 13:13:09;;;;;;;9.52;5.93;;;28.00;99.90;;;;;;6197589;23;20012;-91
2022/06/12 13:15:46;;;;;;;7.25;5.32;;;28.10;99.90;;;;;;6197661;23;20008;-92
2022/06/12 13:18:22;;;;;;;8.35;5.60;;;28.30;99.90;;;;;;6197464;23;20015;-91
2022/06/12 13:21:31;;;;;;;8.10;5.22;;;28.10;99.90;;;;;;6197448;23;20066;-91
2022/06/12 13:24:28;;;;;;;7.32;5.57;;;28.00;99.90;;;;;;6187236;23;20027;-91
2022/06/12 13:26:57;;;;;;;5.88;5.32;;;27.90;99.90;;;;;;6167383;23;20338;-91
2022/06/12 13:29:26;;;;;;;7.18;5.68;;;28.00;99.90;;;;;;6167468;23;20087;-91
2022/06/12 13:32:07;;;;;;;7.55;6.55;;;28.00;99.90;;;;;;6167404;23;20008;-91
2022/06/12 13:34:33;;;;;;;8.90;5.65;;;28.00;99.90;;;;;;6167633;23;20016;-91
2022/06/12 13:37:04;;;;;;;6.43;5.82;;;28.10;99.90;;;;;;6167223;23;20005;-91
2022/06/12 13:39:46;;;;;;;6.75;6.13;;;28.20;99.90;;;;;;6167187;23;20035;-91
2022/06/12 13:42:16;;;;;;;7.82;6.20;;;28.30;99.90;;;;;;6167258;23;20066;-91
2022/06/12 13:44:46;;;;;;;7.45;5.43;;;28.10;99.90;;;;;;6167228;23;20004;-92
2022/06/12 13:47:21;;;;;;;6.60;6.00;;;28.10;99.90;;;;;;6167188;23;20040;-91
2022/06/12 13:50:11;;;;;;;7.88;7.10;;;28.20;99.90;;;;;;6167139;23;20013;-91
2022/06/12 13:53:00;;;;;;;10.00;6.63;;;28.20;99.90;;;;;;6167375;23;20415;-93
2022/06/12 13:55:37;;;;;;;7.40;6.13;;;28.10;99.90;;;;;;6167289;23;20032;-91